Terminal Aerodrome Forecast
Issued by NWS Sioux Falls, SD

Home | Current Version | Previous Version | Graphics & Text | Print | Product List | Glossary Off
Versions: 1 2 3 4 5 6 7 8 9 10 11 12 13 14 15

512
FTUS43 KFSD 211134
TAFFSD
TAF
KFSD 211134Z 2112/2212 15004KT 1/4SM FG OVC002
     FM211500 VRB03KT 1/2SM FG OVC002
     FM211630 23003KT 1SM BR OVC003
     FM211800 26005KT 3SM BR OVC010
     FM212000 26006KT P6SM OVC025
     FM220100 30005KT P6SM OVC015
     FM220800 31007KT P6SM OVC008=

USA.gov is the U.S. government's official web portal to all federal, state and local government web resources and services.